sensor_id;sensor_type;location;lat;lon;timestamp;P1;durP1;ratioP1;P2;durP2;ratioP2
16693;SDS011;39538;52.196;9.892;2022-08-02T00:01:47;323.50;;;308.27;;
16693;SDS011;39538;52.196;9.892;2022-08-02T00:04:13;306.37;;;292.13;;
16693;SDS011;39538;52.196;9.892;2022-08-02T00:06:39;310.97;;;296.60;;
16693;SDS011;39538;52.196;9.892;2022-08-02T00:09:07;309.17;;;294.67;;
16693;SDS011;39538;52.196;9.892;2022-08-02T00:11:34;316.30;;;301.80;;
16693;SDS011;39538;52.196;9.892;2022-08-02T00:14:00;306.67;;;291.93;;
16693;SDS011;39538;52.196;9.892;2022-08-02T00:16:26;309.87;;;295.17;;
16693;SDS011;39538;52.196;9.892;2022-08-02T00:18:53;314.67;;;299.87;;
16693;SDS011;39538;52.196;9.892;2022-08-02T00:21:19;321.10;;;306.00;;
16693;SDS011;39538;52.196;9.892;2022-08-02T00:23:46;326.97;;;311.60;;
16693;SDS011;39538;52.196;9.892;2022-08-02T00:26:14;315.73;;;301.07;;
16693;SDS011;39538;52.196;9.892;2022-08-02T00:28:40;329.23;;;314.23;;
16693;SDS011;39538;52.196;9.892;2022-08-02T00:31:07;313.30;;;298.80;;
16693;SDS011;39538;52.196;9.892;2022-08-02T00:33:33;320.90;;;305.43;;
16693;SDS011;39538;52.196;9.892;2022-08-02T00:36:00;317.90;;;302.93;;
16693;SDS011;39538;52.196;9.892;2022-08-02T00:38:27;328.97;;;313.73;;
16693;SDS011;39538;52.196;9.892;2022-08-02T00:40:54;310.03;;;295.80;;
16693;SDS011;39538;52.196;9.892;2022-08-02T00:43:22;317.73;;;302.90;;
16693;SDS011;39538;52.196;9.892;2022-08-02T00:45:48;305.97;;;292.03;;
16693;SDS011;39538;52.196;9.892;2022-08-02T00:48:15;314.97;;;299.77;;
16693;SDS011;39538;52.196;9.892;2022-08-02T00:50:41;297.80;;;284.53;;
16693;SDS011;39538;52.196;9.892;2022-08-02T00:53:09;314.03;;;299.43;;
16693;SDS011;39538;52.196;9.892;2022-08-02T00:55:35;314.77;;;299.80;;
16693;SDS011;39538;52.196;9.892;2022-08-02T00:58:03;313.43;;;298.17;;
16693;SDS011;39538;52.196;9.892;2022-08-02T01:00:31;302.40;;;288.60;;
16693;SDS011;39538;52.196;9.892;2022-08-02T01:02:57;304.47;;;290.90;;
16693;SDS011;39538;52.196;9.892;2022-08-02T01:05:24;308.47;;;294.73;;
16693;SDS011;39538;52.196;9.892;2022-08-02T01:07:50;290.50;;;277.27;;
16693;SDS011;39538;52.196;9.892;2022-08-02T01:10:17;285.00;;;271.73;;
16693;SDS011;39538;52.196;9.892;2022-08-02T01:12:44;300.80;;;287.13;;
16693;SDS011;39538;52.196;9.892;2022-08-02T01:15:11;296.27;;;282.57;;
16693;SDS011;39538;52.196;9.892;2022-08-02T01:17:42;313.80;;;299.40;;
16693;SDS011;39538;52.196;9.892;2022-08-02T01:20:20;304.87;;;290.77;;
16693;SDS011;39538;52.196;9.892;2022-08-02T01:23:13;293.93;;;279.73;;
16693;SDS011;39538;52.196;9.892;2022-08-02T01:25:56;295.90;;;282.60;;
16693;SDS011;39538;52.196;9.892;2022-08-02T01:28:37;302.23;;;287.53;;
16693;SDS011;39538;52.196;9.892;2022-08-02T01:31:08;296.53;;;282.53;;
16693;SDS011;39538;52.196;9.892;2022-08-02T01:33:40;293.87;;;280.70;;
16693;SDS011;39538;52.196;9.892;2022-08-02T01:36:11;292.03;;;278.53;;
16693;SDS011;39538;52.196;9.892;2022-08-02T01:38:41;298.03;;;284.70;;
16693;SDS011;39538;52.196;9.892;2022-08-02T01:41:11;301.47;;;287.53;;
16693;SDS011;39538;52.196;9.892;2022-08-02T01:43:44;295.97;;;282.27;;
16693;SDS011;39538;52.196;9.892;2022-08-02T01:46:13;297.53;;;283.90;;
16693;SDS011;39538;52.196;9.892;2022-08-02T01:48:41;290.77;;;277.50;;
16693;SDS011;39538;52.196;9.892;2022-08-02T01:51:11;288.73;;;275.03;;
16693;SDS011;39538;52.196;9.892;2022-08-02T01:53:39;287.77;;;274.50;;
16693;SDS011;39538;52.196;9.892;2022-08-02T01:56:08;293.30;;;279.77;;
16693;SDS011;39538;52.196;9.892;2022-08-02T01:58:37;291.50;;;278.00;;
16693;SDS011;39538;52.196;9.892;2022-08-02T02:01:08;268.70;;;256.13;;
16693;SDS011;39538;52.196;9.892;2022-08-02T02:03:36;295.37;;;281.83;;
16693;SDS011;39538;52.196;9.892;2022-08-02T02:06:05;279.40;;;266.83;;
16693;SDS011;39538;52.196;9.892;2022-08-02T02:08:35;281.23;;;268.47;;
16693;SDS011;39538;52.196;9.892;2022-08-02T02:11:05;261.27;;;249.33;;
16693;SDS011;39538;52.196;9.892;2022-08-02T02:13:33;283.93;;;270.63;;
16693;SDS011;39538;52.196;9.892;2022-08-02T02:16:04;273.27;;;260.47;;
16693;SDS011;39538;52.196;9.892;2022-08-02T02:18:33;292.03;;;278.53;;
16693;SDS011;39538;52.196;9.892;2022-08-02T02:21:04;286.37;;;273.07;;
16693;SDS011;39538;52.196;9.892;2022-08-02T02:23:30;272.77;;;260.03;;
16693;SDS011;39538;52.196;9.892;2022-08-02T02:25:57;297.70;;;283.77;;
16693;SDS011;39538;52.196;9.892;2022-08-02T02:28:26;288.27;;;275.17;;
16693;SDS011;39538;52.196;9.892;2022-08-02T02:30:57;284.53;;;271.30;;
16693;SDS011;39538;52.196;9.892;2022-08-02T02:33:27;290.83;;;276.93;;
16693;SDS011;39538;52.196;9.892;2022-08-02T02:35:58;284.93;;;271.47;;
16693;SDS011;39538;52.196;9.892;2022-08-02T02:38:26;279.53;;;266.43;;
16693;SDS011;39538;52.196;9.892;2022-08-02T02:40:55;288.33;;;274.90;;
16693;SDS011;39538;52.196;9.892;2022-08-02T02:43:26;275.40;;;262.93;;
16693;SDS011;39538;52.196;9.892;2022-08-02T02:45:54;278.57;;;265.57;;
16693;SDS011;39538;52.196;9.892;2022-08-02T02:48:21;282.83;;;269.60;;
16693;SDS011;39538;52.196;9.892;2022-08-02T02:50:48;275.53;;;262.83;;
16693;SDS011;39538;52.196;9.892;2022-08-02T02:53:17;267.10;;;254.80;;
16693;SDS011;39538;52.196;9.892;2022-08-02T02:55:45;290.27;;;276.47;;
16693;SDS011;39538;52.196;9.892;2022-08-02T02:58:13;275.20;;;262.17;;
16693;SDS011;39538;52.196;9.892;2022-08-02T03:00:40;278.07;;;265.33;;
16693;SDS011;39538;52.196;9.892;2022-08-02T03:03:25;270.47;;;257.70;;
16693;SDS011;39538;52.196;9.892;2022-08-02T03:05:52;277.33;;;264.20;;
16693;SDS011;39538;52.196;9.892;2022-08-02T03:08:20;256.60;;;244.83;;
16693;SDS011;39538;52.196;9.892;2022-08-02T03:10:47;280.03;;;267.00;;
16693;SDS011;39538;52.196;9.892;2022-08-02T03:13:13;242.07;;;231.13;;
16693;SDS011;39538;52.196;9.892;2022-08-02T03:15:41;260.67;;;248.60;;
16693;SDS011;39538;52.196;9.892;2022-08-02T03:18:08;261.73;;;249.50;;
16693;SDS011;39538;52.196;9.892;2022-08-02T03:20:34;246.07;;;234.47;;
16693;SDS011;39538;52.196;9.892;2022-08-02T03:23:01;249.13;;;237.50;;
16693;SDS011;39538;52.196;9.892;2022-08-02T03:25:29;242.73;;;231.53;;
16693;SDS011;39538;52.196;9.892;2022-08-02T03:27:55;243.97;;;232.73;;
16693;SDS011;39538;52.196;9.892;2022-08-02T03:30:21;232.57;;;222.10;;
16693;SDS011;39538;52.196;9.892;2022-08-02T03:32:51;246.27;;;234.53;;
16693;SDS011;39538;52.196;9.892;2022-08-02T03:35:18;234.53;;;223.77;;
16693;SDS011;39538;52.196;9.892;2022-08-02T03:37:45;228.50;;;217.83;;
16693;SDS011;39538;52.196;9.892;2022-08-02T03:40:13;225.63;;;214.97;;
16693;SDS011;39538;52.196;9.892;2022-08-02T03:42:42;248.20;;;236.33;;
16693;SDS011;39538;52.196;9.892;2022-08-02T03:45:09;222.83;;;212.57;;
16693;SDS011;39538;52.196;9.892;2022-08-02T03:47:38;236.20;;;225.47;;
16693;SDS011;39538;52.196;9.892;2022-08-02T03:50:06;242.87;;;231.77;;
16693;SDS011;39538;52.196;9.892;2022-08-02T03:52:35;225.00;;;214.60;;
16693;SDS011;39538;52.196;9.892;2022-08-02T03:55:02;245.67;;;234.23;;
16693;SDS011;39538;52.196;9.892;2022-08-02T03:57:29;233.37;;;222.10;;
16693;SDS011;39538;52.196;9.892;2022-08-02T03:59:57;231.43;;;220.97;;
16693;SDS011;39538;52.196;9.892;2022-08-02T04:02:24;231.50;;;220.57;;
16693;SDS011;39538;52.196;9.892;2022-08-02T04:04:50;241.37;;;230.23;;
16693;SDS011;39538;52.196;9.892;2022-08-02T04:07:17;239.03;;;227.97;;
16693;SDS011;39538;52.196;9.892;2022-08-02T04:09:43;222.63;;;212.33;;
16693;SDS011;39538;52.196;9.892;2022-08-02T04:12:10;217.70;;;207.87;;
16693;SDS011;39538;52.196;9.892;2022-08-02T04:14:36;223.80;;;213.80;;
16693;SDS011;39538;52.196;9.892;2022-08-02T04:17:05;235.87;;;225.37;;
16693;SDS011;39538;52.196;9.892;2022-08-02T04:19:36;245.63;;;234.53;;
16693;SDS011;39538;52.196;9.892;2022-08-02T04:22:06;215.33;;;205.40;;
16693;SDS011;39538;52.196;9.892;2022-08-02T04:24:37;232.43;;;221.73;;
16693;SDS011;39538;52.196;9.892;2022-08-02T04:27:07;234.37;;;223.57;;
16693;SDS011;39538;52.196;9.892;2022-08-02T04:29:35;223.23;;;213.33;;
16693;SDS011;39538;52.196;9.892;2022-08-02T04:32:05;234.00;;;222.93;;
16693;SDS011;39538;52.196;9.892;2022-08-02T04:34:32;233.07;;;221.83;;
16693;SDS011;39538;52.196;9.892;2022-08-02T04:36:59;238.20;;;227.13;;
16693;SDS011;39538;52.196;9.892;2022-08-02T04:39:25;227.80;;;217.63;;
16693;SDS011;39538;52.196;9.892;2022-08-02T04:41:52;229.13;;;218.73;;
16693;SDS011;39538;52.196;9.892;2022-08-02T04:44:19;238.50;;;227.67;;
16693;SDS011;39538;52.196;9.892;2022-08-02T04:46:45;233.07;;;222.57;;
16693;SDS011;39538;52.196;9.892;2022-08-02T04:49:14;242.17;;;231.37;;
16693;SDS011;39538;52.196;9.892;2022-08-02T04:51:41;229.40;;;218.70;;
16693;SDS011;39538;52.196;9.892;2022-08-02T04:54:08;240.10;;;229.37;;
16693;SDS011;39538;52.196;9.892;2022-08-02T04:56:36;235.03;;;224.17;;
16693;SDS011;39538;52.196;9.892;2022-08-02T04:59:02;244.57;;;233.50;;
16693;SDS011;39538;52.196;9.892;2022-08-02T05:01:29;227.10;;;216.07;;
16693;SDS011;39538;52.196;9.892;2022-08-02T05:03:56;237.20;;;226.60;;
16693;SDS011;39538;52.196;9.892;2022-08-02T05:06:24;233.50;;;223.10;;
16693;SDS011;39538;52.196;9.892;2022-08-02T05:08:50;247.43;;;235.53;;
16693;SDS011;39538;52.196;9.892;2022-08-02T05:11:17;234.40;;;223.27;;
16693;SDS011;39538;52.196;9.892;2022-08-02T05:13:43;225.90;;;215.37;;
16693;SDS011;39538;52.196;9.892;2022-08-02T05:16:09;252.13;;;240.80;;
16693;SDS011;39538;52.196;9.892;2022-08-02T05:18:36;237.73;;;226.93;;
16693;SDS011;39538;52.196;9.892;2022-08-02T05:21:02;245.97;;;234.67;;
16693;SDS011;39538;52.196;9.892;2022-08-02T05:23:30;246.03;;;234.57;;
16693;SDS011;39538;52.196;9.892;2022-08-02T05:25:57;265.07;;;252.67;;
16693;SDS011;39538;52.196;9.892;2022-08-02T05:28:23;250.13;;;239.00;;
16693;SDS011;39538;52.196;9.892;2022-08-02T05:30:50;251.43;;;240.17;;
16693;SDS011;39538;52.196;9.892;2022-08-02T05:33:17;249.80;;;238.40;;
16693;SDS011;39538;52.196;9.892;2022-08-02T05:35:43;255.80;;;244.03;;
16693;SDS011;39538;52.196;9.892;2022-08-02T05:38:10;265.47;;;253.60;;
16693;SDS011;39538;52.196;9.892;2022-08-02T05:40:38;244.00;;;232.73;;
16693;SDS011;39538;52.196;9.892;2022-08-02T05:43:09;256.23;;;244.37;;
16693;SDS011;39538;52.196;9.892;2022-08-02T05:45:37;268.00;;;255.53;;
16693;SDS011;39538;52.196;9.892;2022-08-02T05:48:04;280.77;;;267.70;;
16693;SDS011;39538;52.196;9.892;2022-08-02T05:50:30;280.37;;;267.60;;
16693;SDS011;39538;52.196;9.892;2022-08-02T05:53:00;272.13;;;259.53;;
16693;SDS011;39538;52.196;9.892;2022-08-02T05:55:31;269.60;;;256.93;;
16693;SDS011;39538;52.196;9.892;2022-08-02T05:58:04;274.17;;;261.70;;
16693;SDS011;39538;52.196;9.892;2022-08-02T06:00:37;281.93;;;269.17;;
16693;SDS011;39538;52.196;9.892;2022-08-02T06:03:13;278.90;;;265.83;;
16693;SDS011;39538;52.196;9.892;2022-08-02T06:05:48;288.10;;;274.67;;
16693;SDS011;39538;52.196;9.892;2022-08-02T06:08:19;282.97;;;269.47;;
16693;SDS011;39538;52.196;9.892;2022-08-02T06:10:49;289.90;;;276.40;;
16693;SDS011;39538;52.196;9.892;2022-08-02T06:13:18;298.03;;;284.67;;
16693;SDS011;39538;52.196;9.892;2022-08-02T06:15:45;304.47;;;290.10;;
16693;SDS011;39538;52.196;9.892;2022-08-02T06:18:16;293.23;;;279.13;;
16693;SDS011;39538;52.196;9.892;2022-08-02T06:20:44;277.03;;;264.13;;
16693;SDS011;39538;52.196;9.892;2022-08-02T06:23:15;287.77;;;274.23;;
16693;SDS011;39538;52.196;9.892;2022-08-02T06:25:42;301.37;;;286.90;;
16693;SDS011;39538;52.196;9.892;2022-08-02T06:28:11;287.00;;;272.97;;
16693;SDS011;39538;52.196;9.892;2022-08-02T06:30:40;304.03;;;289.37;;
16693;SDS011;39538;52.196;9.892;2022-08-02T06:33:08;298.23;;;283.63;;
16693;SDS011;39538;52.196;9.892;2022-08-02T06:35:38;295.60;;;282.13;;
16693;SDS011;39538;52.196;9.892;2022-08-02T06:38:11;306.50;;;292.27;;
16693;SDS011;39538;52.196;9.892;2022-08-02T06:40:44;316.40;;;301.53;;
16693;SDS011;39538;52.196;9.892;2022-08-02T06:43:17;332.23;;;316.53;;
16693;SDS011;39538;52.196;9.892;2022-08-02T06:45:49;330.70;;;315.40;;
16693;SDS011;39538;52.196;9.892;2022-08-02T06:48:15;345.13;;;328.97;;
16693;SDS011;39538;52.196;9.892;2022-08-02T06:50:42;324.57;;;310.10;;
16693;SDS011;39538;52.196;9.892;2022-08-02T06:53:08;336.43;;;320.90;;
16693;SDS011;39538;52.196;9.892;2022-08-02T06:55:36;336.97;;;321.63;;
16693;SDS011;39538;52.196;9.892;2022-08-02T06:58:02;332.43;;;317.03;;
16693;SDS011;39538;52.196;9.892;2022-08-02T07:00:29;346.80;;;331.10;;
16693;SDS011;39538;52.196;9.892;2022-08-02T07:02:57;339.30;;;323.57;;
16693;SDS011;39538;52.196;9.892;2022-08-02T07:05:24;345.47;;;329.57;;
16693;SDS011;39538;52.196;9.892;2022-08-02T07:07:50;344.50;;;328.63;;
16693;SDS011;39538;52.196;9.892;2022-08-02T07:10:16;338.57;;;322.30;;
16693;SDS011;39538;52.196;9.892;2022-08-02T07:12:43;358.37;;;341.30;;
16693;SDS011;39538;52.196;9.892;2022-08-02T07:15:09;354.10;;;337.37;;
16693;SDS011;39538;52.196;9.892;2022-08-02T07:17:37;387.00;;;368.53;;
16693;SDS011;39538;52.196;9.892;2022-08-02T07:20:06;391.70;;;373.30;;
16693;SDS011;39538;52.196;9.892;2022-08-02T07:22:34;399.20;;;380.93;;
16693;SDS011;39538;52.196;9.892;2022-08-02T07:25:01;411.37;;;391.93;;
16693;SDS011;39538;52.196;9.892;2022-08-02T07:27:29;418.93;;;398.20;;
16693;SDS011;39538;52.196;9.892;2022-08-02T07:29:55;401.83;;;382.00;;
16693;SDS011;39538;52.196;9.892;2022-08-02T07:32:24;410.87;;;391.03;;
16693;SDS011;39538;52.196;9.892;2022-08-02T07:34:53;388.87;;;369.70;;
16693;SDS011;39538;52.196;9.892;2022-08-02T07:37:22;415.17;;;394.17;;
16693;SDS011;39538;52.196;9.892;2022-08-02T07:39:50;413.67;;;392.67;;
16693;SDS011;39538;52.196;9.892;2022-08-02T07:42:16;399.67;;;380.57;;
16693;SDS011;39538;52.196;9.892;2022-08-02T07:44:43;394.77;;;374.77;;
16693;SDS011;39538;52.196;9.892;2022-08-02T07:47:09;393.87;;;374.77;;
16693;SDS011;39538;52.196;9.892;2022-08-02T07:49:36;404.00;;;383.83;;
16693;SDS011;39538;52.196;9.892;2022-08-02T07:52:02;404.93;;;385.30;;
16693;SDS011;39538;52.196;9.892;2022-08-02T07:54:30;393.40;;;373.33;;
16693;SDS011;39538;52.196;9.892;2022-08-02T07:56:57;397.00;;;377.77;;
16693;SDS011;39538;52.196;9.892;2022-08-02T07:59:24;409.27;;;389.07;;
16693;SDS011;39538;52.196;9.892;2022-08-02T08:01:51;404.00;;;383.23;;
16693;SDS011;39538;52.196;9.892;2022-08-02T08:04:18;399.40;;;379.67;;
16693;SDS011;39538;52.196;9.892;2022-08-02T08:06:44;411.07;;;390.23;;
16693;SDS011;39538;52.196;9.892;2022-08-02T08:09:13;410.63;;;390.17;;
16693;SDS011;39538;52.196;9.892;2022-08-02T08:11:41;440.13;;;416.73;;
16693;SDS011;39538;52.196;9.892;2022-08-02T08:14:08;433.40;;;412.13;;
16693;SDS011;39538;52.196;9.892;2022-08-02T08:16:35;443.63;;;420.63;;
16693;SDS011;39538;52.196;9.892;2022-08-02T08:19:02;446.30;;;423.63;;
16693;SDS011;39538;52.196;9.892;2022-08-02T08:21:28;453.13;;;429.05;;
16693;SDS011;39538;52.196;9.892;2022-08-02T08:23:55;416.80;;;394.63;;
16693;SDS011;39538;52.196;9.892;2022-08-02T08:26:21;426.33;;;404.10;;
16693;SDS011;39538;52.196;9.892;2022-08-02T08:28:51;419.50;;;397.63;;
16693;SDS011;39538;52.196;9.892;2022-08-02T08:31:18;396.45;;;376.13;;
16693;SDS011;39538;52.196;9.892;2022-08-02T08:33:44;368.00;;;348.85;;
16693;SDS011;39538;52.196;9.892;2022-08-02T08:36:11;367.70;;;348.55;;
16693;SDS011;39538;52.196;9.892;2022-08-02T08:38:37;383.58;;;365.17;;
16693;SDS011;39538;52.196;9.892;2022-08-02T08:41:04;370.95;;;352.23;;
16693;SDS011;39538;52.196;9.892;2022-08-02T08:43:30;364.10;;;345.17;;
16693;SDS011;39538;52.196;9.892;2022-08-02T08:45:58;367.08;;;349.25;;
16693;SDS011;39538;52.196;9.892;2022-08-02T08:48:24;276.20;;;263.50;;
16693;SDS011;39538;52.196;9.892;2022-08-02T08:50:53;320.38;;;305.67;;
16693;SDS011;39538;52.196;9.892;2022-08-02T08:53:23;318.27;;;304.00;;
16693;SDS011;39538;52.196;9.892;2022-08-02T08:55:51;365.30;;;348.15;;
16693;SDS011;39538;52.196;9.892;2022-08-02T08:58:20;364.67;;;346.98;;
16693;SDS011;39538;52.196;9.892;2022-08-02T09:00:47;369.30;;;351.60;;
16693;SDS011;39538;52.196;9.892;2022-08-02T09:03:15;325.20;;;310.60;;
16693;SDS011;39538;52.196;9.892;2022-08-02T09:05:43;268.15;;;255.65;;
16693;SDS011;39538;52.196;9.892;2022-08-02T09:08:10;254.10;;;242.60;;
16693;SDS011;39538;52.196;9.892;2022-08-02T09:10:38;255.05;;;243.15;;
16693;SDS011;39538;52.196;9.892;2022-08-02T09:13:07;253.73;;;242.07;;
16693;SDS011;39538;52.196;9.892;2022-08-02T09:15:35;287.63;;;274.65;;
16693;SDS011;39538;52.196;9.892;2022-08-02T09:18:02;351.25;;;334.38;;
16693;SDS011;39538;52.196;9.892;2022-08-02T09:20:31;307.05;;;293.10;;
16693;SDS011;39538;52.196;9.892;2022-08-02T09:23:04;313.20;;;298.48;;
16693;SDS011;39538;52.196;9.892;2022-08-02T09:25:32;281.70;;;268.88;;
16693;SDS011;39538;52.196;9.892;2022-08-02T09:27:59;257.20;;;245.63;;
16693;SDS011;39538;52.196;9.892;2022-08-02T09:30:25;281.42;;;268.10;;
16693;SDS011;39538;52.196;9.892;2022-08-02T09:32:52;254.30;;;242.68;;
16693;SDS011;39538;52.196;9.892;2022-08-02T09:35:33;248.50;;;237.18;;
16693;SDS011;39538;52.196;9.892;2022-08-02T09:38:07;234.65;;;224.48;;
16693;SDS011;39538;52.196;9.892;2022-08-02T09:40:35;220.98;;;211.15;;
16693;SDS011;39538;52.196;9.892;2022-08-02T09:43:03;207.82;;;198.93;;
16693;SDS011;39538;52.196;9.892;2022-08-02T09:45:30;187.75;;;179.65;;
16693;SDS011;39538;52.196;9.892;2022-08-02T09:47:58;166.63;;;159.45;;
16693;SDS011;39538;52.196;9.892;2022-08-02T09:50:25;160.60;;;154.27;;
16693;SDS011;39538;52.196;9.892;2022-08-02T09:52:55;138.45;;;133.20;;
16693;SDS011;39538;52.196;9.892;2022-08-02T09:55:22;136.32;;;130.80;;
16693;SDS011;39538;52.196;9.892;2022-08-02T09:57:49;116.80;;;112.40;;
16693;SDS011;39538;52.196;9.892;2022-08-02T10:00:15;129.93;;;124.15;;
16693;SDS011;39538;52.196;9.892;2022-08-02T10:05:46;111.80;;;107.45;;
16693;SDS011;39538;52.196;9.892;2022-08-02T10:08:16;139.38;;;133.85;;
16693;SDS011;39538;52.196;9.892;2022-08-02T10:10:43;118.47;;;113.97;;
16693;SDS011;39538;52.196;9.892;2022-08-02T10:13:10;135.52;;;129.95;;
16693;SDS011;39538;52.196;9.892;2022-08-02T10:15:37;140.00;;;134.40;;
16693;SDS011;39538;52.196;9.892;2022-08-02T10:18:04;100.72;;;97.30;;
16693;SDS011;39538;52.196;9.892;2022-08-02T10:20:32;111.13;;;107.13;;
16693;SDS011;39538;52.196;9.892;2022-08-02T10:23:05;103.05;;;99.38;;
16693;SDS011;39538;52.196;9.892;2022-08-02T10:25:36;114.05;;;109.20;;
16693;SDS011;39538;52.196;9.892;2022-08-02T10:28:03;101.78;;;98.05;;
16693;SDS011;39538;52.196;9.892;2022-08-02T10:30:31;90.70;;;87.63;;
16693;SDS011;39538;52.196;9.892;2022-08-02T10:33:00;97.97;;;94.75;;
16693;SDS011;39538;52.196;9.892;2022-08-02T10:35:28;93.88;;;90.95;;
16693;SDS011;39538;52.196;9.892;2022-08-02T10:38:00;99.35;;;95.95;;
16693;SDS011;39538;52.196;9.892;2022-08-02T10:40:43;96.32;;;93.05;;
16693;SDS011;39538;52.196;9.892;2022-08-02T10:43:10;100.53;;;97.30;;
16693;SDS011;39538;52.196;9.892;2022-08-02T10:45:38;183.07;;;175.20;;
16693;SDS011;39538;52.196;9.892;2022-08-02T10:48:07;104.80;;;100.50;;
16693;SDS011;39538;52.196;9.892;2022-08-02T10:50:51;102.57;;;99.05;;
16693;SDS011;39538;52.196;9.892;2022-08-02T10:53:19;110.07;;;106.30;;
16693;SDS011;39538;52.196;9.892;2022-08-02T10:55:49;95.70;;;92.65;;
16693;SDS011;39538;52.196;9.892;2022-08-02T10:58:16;89.90;;;87.00;;
16693;SDS011;39538;52.196;9.892;2022-08-02T11:00:44;124.68;;;120.13;;
16693;SDS011;39538;52.196;9.892;2022-08-02T11:06:00;118.05;;;113.63;;
16693;SDS011;39538;52.196;9.892;2022-08-02T11:08:28;162.40;;;155.60;;
16693;SDS011;39538;52.196;9.892;2022-08-02T11:10:58;158.80;;;152.23;;
16693;SDS011;39538;52.196;9.892;2022-08-02T11:13:25;153.85;;;147.77;;
16693;SDS011;39538;52.196;9.892;2022-08-02T11:15:57;159.48;;;152.93;;
16693;SDS011;39538;52.196;9.892;2022-08-02T11:21:27;127.13;;;122.47;;
16693;SDS011;39538;52.196;9.892;2022-08-02T11:23:55;159.93;;;153.10;;
16693;SDS011;39538;52.196;9.892;2022-08-02T11:26:54;179.63;;;172.18;;
16693;SDS011;39538;52.196;9.892;2022-08-02T11:29:20;210.32;;;201.15;;
16693;SDS011;39538;52.196;9.892;2022-08-02T11:31:47;188.32;;;180.20;;
16693;SDS011;39538;52.196;9.892;2022-08-02T11:34:15;186.27;;;178.38;;
16693;SDS011;39538;52.196;9.892;2022-08-02T11:36:42;203.35;;;194.52;;
16693;SDS011;39538;52.196;9.892;2022-08-02T11:39:10;198.13;;;189.50;;
16693;SDS011;39538;52.196;9.892;2022-08-02T11:41:37;212.98;;;203.30;;
16693;SDS011;39538;52.196;9.892;2022-08-02T11:44:05;199.10;;;189.95;;
16693;SDS011;39538;52.196;9.892;2022-08-02T11:46:32;216.48;;;206.32;;
16693;SDS011;39538;52.196;9.892;2022-08-02T11:49:09;215.45;;;205.60;;
16693;SDS011;39538;52.196;9.892;2022-08-02T11:51:37;225.05;;;214.77;;
16693;SDS011;39538;52.196;9.892;2022-08-02T11:54:04;271.67;;;258.58;;
16693;SDS011;39538;52.196;9.892;2022-08-02T11:56:31;221.27;;;211.00;;
16693;SDS011;39538;52.196;9.892;2022-08-02T11:59:01;215.32;;;205.60;;
16693;SDS011;39538;52.196;9.892;2022-08-02T12:01:32;211.55;;;202.02;;
16693;SDS011;39538;52.196;9.892;2022-08-02T12:04:00;223.43;;;213.30;;
16693;SDS011;39538;52.196;9.892;2022-08-02T12:06:27;264.45;;;251.90;;
16693;SDS011;39538;52.196;9.892;2022-08-02T12:08:58;248.75;;;237.38;;
16693;SDS011;39538;52.196;9.892;2022-08-02T12:11:29;277.50;;;263.85;;
16693;SDS011;39538;52.196;9.892;2022-08-02T12:13:55;254.90;;;242.90;;
16693;SDS011;39538;52.196;9.892;2022-08-02T12:16:22;269.83;;;256.90;;
16693;SDS011;39538;52.196;9.892;2022-08-02T12:19:08;264.02;;;251.45;;
16693;SDS011;39538;52.196;9.892;2022-08-02T12:21:44;265.55;;;252.68;;
16693;SDS011;39538;52.196;9.892;2022-08-02T12:24:10;280.45;;;266.67;;
16693;SDS011;39538;52.196;9.892;2022-08-02T12:26:41;256.45;;;244.05;;
16693;SDS011;39538;52.196;9.892;2022-08-02T12:29:09;252.90;;;240.63;;
16693;SDS011;39538;52.196;9.892;2022-08-02T12:31:40;245.20;;;232.93;;
16693;SDS011;39538;52.196;9.892;2022-08-02T12:34:13;262.73;;;249.82;;
16693;SDS011;39538;52.196;9.892;2022-08-02T12:36:42;218.05;;;207.68;;
16693;SDS011;39538;52.196;9.892;2022-08-02T12:39:31;242.23;;;230.40;;
16693;SDS011;39538;52.196;9.892;2022-08-02T12:41:59;216.48;;;206.13;;
16693;SDS011;39538;52.196;9.892;2022-08-02T12:44:25;189.38;;;180.48;;
16693;SDS011;39538;52.196;9.892;2022-08-02T12:46:57;175.63;;;167.88;;
16693;SDS011;39538;52.196;9.892;2022-08-02T12:49:25;164.55;;;157.50;;
16693;SDS011;39538;52.196;9.892;2022-08-02T12:51:52;179.05;;;171.50;;
16693;SDS011;39538;52.196;9.892;2022-08-02T12:54:19;189.48;;;181.10;;
16693;SDS011;39538;52.196;9.892;2022-08-02T12:56:48;179.45;;;172.30;;
16693;SDS011;39538;52.196;9.892;2022-08-02T12:59:16;165.32;;;158.60;;
16693;SDS011;39538;52.196;9.892;2022-08-02T13:01:59;172.88;;;165.68;;
16693;SDS011;39538;52.196;9.892;2022-08-02T13:04:28;169.80;;;162.75;;
16693;SDS011;39538;52.196;9.892;2022-08-02T13:06:54;148.15;;;142.48;;
16693;SDS011;39538;52.196;9.892;2022-08-02T13:09:21;166.93;;;160.30;;
16693;SDS011;39538;52.196;9.892;2022-08-02T13:11:47;181.85;;;174.52;;
16693;SDS011;39538;52.196;9.892;2022-08-02T13:14:14;147.93;;;142.40;;
16693;SDS011;39538;52.196;9.892;2022-08-02T13:16:42;192.43;;;184.80;;
16693;SDS011;39538;52.196;9.892;2022-08-02T13:19:10;177.32;;;170.40;;
16693;SDS011;39538;52.196;9.892;2022-08-02T13:21:38;168.40;;;161.40;;
16693;SDS011;39538;52.196;9.892;2022-08-02T13:24:05;147.48;;;141.98;;
16693;SDS011;39538;52.196;9.892;2022-08-02T13:26:32;170.52;;;163.63;;
16693;SDS011;39538;52.196;9.892;2022-08-02T13:28:58;161.98;;;155.70;;
16693;SDS011;39538;52.196;9.892;2022-08-02T13:31:25;147.43;;;141.77;;
16693;SDS011;39538;52.196;9.892;2022-08-02T13:33:51;159.70;;;153.40;;
16693;SDS011;39538;52.196;9.892;2022-08-02T13:36:17;158.45;;;152.00;;
16693;SDS011;39538;52.196;9.892;2022-08-02T13:38:45;142.60;;;137.15;;
16693;SDS011;39538;52.196;9.892;2022-08-02T13:41:12;162.40;;;155.85;;
16693;SDS011;39538;52.196;9.892;2022-08-02T13:43:38;120.05;;;115.90;;
16693;SDS011;39538;52.196;9.892;2022-08-02T13:46:06;143.48;;;138.05;;
16693;SDS011;39538;52.196;9.892;2022-08-02T13:48:33;159.57;;;153.05;;
16693;SDS011;39538;52.196;9.892;2022-08-02T13:51:00;129.55;;;124.82;;
16693;SDS011;39538;52.196;9.892;2022-08-02T13:53:26;149.73;;;143.93;;
16693;SDS011;39538;52.196;9.892;2022-08-02T13:55:54;142.15;;;136.65;;
16693;SDS011;39538;52.196;9.892;2022-08-02T13:58:22;147.85;;;142.15;;
16693;SDS011;39538;52.196;9.892;2022-08-02T14:00:49;141.82;;;135.50;;
16693;SDS011;39538;52.196;9.892;2022-08-02T14:03:15;129.43;;;124.53;;
16693;SDS011;39538;52.196;9.892;2022-08-02T14:05:42;135.48;;;130.25;;
16693;SDS011;39538;52.196;9.892;2022-08-02T14:08:08;127.22;;;122.43;;
16693;SDS011;39538;52.196;9.892;2022-08-02T14:10:35;128.48;;;123.60;;
16693;SDS011;39538;52.196;9.892;2022-08-02T14:13:03;124.63;;;119.93;;